Lavaca Bay — WDF2105 — position and weather

sailwx.info

Track history (hours):
 
Tides and Currents Weather Stations Pressure Air Temp Water Temp Dewpoint Dewpoint Depression Visibility Wind Speed Wind Dir Waves Ship Positions

Lavaca Bay

Owner: Higman Barge Lines, Inc, Orange, TX. More information available from US FCC via Universal Licensing System and Coast Guard Vessel Documentation Center.

Last reported at 2017-Dec-11 17:00 UTC. Time now 2017-Dec-11 19:05 UTC.
Position N 29°37' W 090°42'.

Length 24 m; draft 3 m.

Type: Towing. MMSI: 367424940.

Date/timePositionNaut miles runAvg speedWind from/ knotsBaromVisibWave heightAir tempDewpointWater temp
2017-Dec-11 17:00N 29°37' W 090°42'1 2.7
2017-Dec-11 16:30N 29°36' W 090°41'2 4.9
2017-Dec-11 16:00N 29°35' W 090°38'2 4.6
2017-Dec-11 15:30N 29°35' W 090°36'2 4.8
2017-Dec-11 15:00N 29°34' W 090°33'3 5.0
2017-Dec-11 14:30N 29°34' W 090°30'3 5.2
2017-Dec-11 14:01N 29°33' W 090°27'3 5.2
2017-Dec-11 13:31N 29°33' W 090°24'2 3.4
2017-Dec-11 12:56N 29°35' W 090°23'3 4.6
2017-Dec-11 12:21N 29°37' W 090°21'  
2017-Dec-02 15:05N 29°51' W 091°54'0 1.1
2017-Dec-02 14:56N 29°51' W 091°54'1 3.1
2017-Dec-02 14:30N 29°51' W 091°56'2 3.8
2017-Dec-02 14:00N 29°50' W 091°58'2 3.4
2017-Dec-02 13:31N 29°50' W 091°60'3 5.3
2017-Dec-02 13:01N 29°49' W 092°02'3 5.2
2017-Dec-02 12:31N 29°48' W 092°05'3 5.2
2017-Dec-02 12:00N 29°47' W 092°08'2 4.9
2017-Dec-02 11:31N 29°47' W 092°11'2 3.3
2017-Dec-02 11:01N 29°47' W 092°13'1 2.7
2017-Dec-02 10:30N 29°48' W 092°14'0 0.0
2017-Dec-02 10:00N 29°48' W 092°14'0 0.6
2017-Dec-02 09:31N 29°48' W 092°14'0 0.3
2017-Dec-02 09:01N 29°48' W 092°14'0 0.0
2017-Dec-02 08:30N 29°48' W 092°14'0 0.0
2017-Dec-02 08:00N 29°48' W 092°14'0 0.0
2017-Dec-02 07:31N 29°48' W 092°14'0 0.0
2017-Dec-02 07:00N 29°48' W 092°14'0 0.2
2017-Dec-02 06:31N 29°48' W 092°15'1 1.8
2017-Dec-02 06:01N 29°48' W 092°15'0 0.9
2017-Dec-02 05:30N 29°48' W 092°16'0 0.1
2017-Dec-02 05:01N 29°48' W 092°16'0 0.6
2017-Dec-02 04:31N 29°49' W 092°16'2 4.6
2017-Dec-02 04:00N 29°50' W 092°18'2 4.4
2017-Dec-02 03:30N 29°51' W 092°21'6 3.7
2017-Dec-02 02:00N 29°53' W 092°26'31 4.5
2017-Dec-01 19:06N 29°56' W 093°02'0 4.7
2017-Dec-01 19:00N 29°56' W 093°03'2 4.4
2017-Dec-01 18:31N 29°56' W 093°05'2 4.7
2017-Dec-01 18:01N 29°56' W 093°08'2 4.1
2017-Dec-01 17:31N 29°56' W 093°10'  
Track history (hours):
 
Tides and Currents Weather Stations Pressure Air Temp Water Temp Dewpoint Dewpoint Depression Visibility Wind Speed Wind Dir Waves Ship Positions

Lavaca Bay

Owner: Higman Barge Lines, Inc, Orange, TX. More information available from US FCC via Universal Licensing System and Coast Guard Vessel Documentation Center.

Last reported at 2017-Dec-11 17:00 UTC. Time now 2017-Dec-11 19:05 UTC.
Position N 29°37' W 090°42'.

Length 24 m; draft 3 m.

Type: Towing. MMSI: 367424940.

Date/timePositionNaut miles runAvg speedWind from/ knotsBaromVisibWave heightAir tempDewpointWater temp
2017-Dec-11 17:00N 29°37' W 090°42'1 2.7
2017-Dec-11 16:30N 29°36' W 090°41'2 4.9
2017-Dec-11 16:00N 29°35' W 090°38'2 4.6
2017-Dec-11 15:30N 29°35' W 090°36'2 4.8
2017-Dec-11 15:00N 29°34' W 090°33'3 5.0
2017-Dec-11 14:30N 29°34' W 090°30'3 5.2
2017-Dec-11 14:01N 29°33' W 090°27'3 5.2
2017-Dec-11 13:31N 29°33' W 090°24'2 3.4
2017-Dec-11 12:56N 29°35' W 090°23'3 4.6
2017-Dec-11 12:21N 29°37' W 090°21'  
2017-Dec-02 15:05N 29°51' W 091°54'0 1.1
2017-Dec-02 14:56N 29°51' W 091°54'1 3.1
2017-Dec-02 14:30N 29°51' W 091°56'2 3.8
2017-Dec-02 14:00N 29°50' W 091°58'2 3.4
2017-Dec-02 13:31N 29°50' W 091°60'3 5.3
2017-Dec-02 13:01N 29°49' W 092°02'3 5.2
2017-Dec-02 12:31N 29°48' W 092°05'3 5.2
2017-Dec-02 12:00N 29°47' W 092°08'2 4.9
2017-Dec-02 11:31N 29°47' W 092°11'2 3.3
2017-Dec-02 11:01N 29°47' W 092°13'1 2.7
2017-Dec-02 10:30N 29°48' W 092°14'0 0.0
2017-Dec-02 10:00N 29°48' W 092°14'0 0.6
2017-Dec-02 09:31N 29°48' W 092°14'0 0.3
2017-Dec-02 09:01N 29°48' W 092°14'0 0.0
2017-Dec-02 08:30N 29°48' W 092°14'0 0.0
2017-Dec-02 08:00N 29°48' W 092°14'0 0.0
2017-Dec-02 07:31N 29°48' W 092°14'0 0.0
2017-Dec-02 07:00N 29°48' W 092°14'0 0.2
2017-Dec-02 06:31N 29°48' W 092°15'1 1.8
2017-Dec-02 06:01N 29°48' W 092°15'0 0.9
2017-Dec-02 05:30N 29°48' W 092°16'0 0.1
2017-Dec-02 05:01N 29°48' W 092°16'0 0.6
2017-Dec-02 04:31N 29°49' W 092°16'2 4.6
2017-Dec-02 04:00N 29°50' W 092°18'2 4.4
2017-Dec-02 03:30N 29°51' W 092°21'6 3.7
2017-Dec-02 02:00N 29°53' W 092°26'31 4.5
2017-Dec-01 19:06N 29°56' W 093°02'0 4.7
2017-Dec-01 19:00N 29°56' W 093°03'2 4.4
2017-Dec-01 18:31N 29°56' W 093°05'2 4.7
2017-Dec-01 18:01N 29°56' W 093°08'2 4.1
2017-Dec-01 17:31N 29°56' W 093°10'  

Dump ship's entire track history